Time;durP1;ratioP1;P1;durP2;ratioP2;P2;SDS_P1;SDS_P2;PMS_P1;PMS_P2;Temp;Humidity;BMP_temperature;BMP_pressure;BME280_temperature;BME280_humidity;BME280_pressure;Samples;Min_cycle;Max_cycle;Signal;HPM_P1;HPM_P2
2023/07/09 00:00:17;;;;;;;;;;;;;;;;;;5046085;28;19921;-65
2023/07/09 00:02:43;;;;;;;;;;;;;;;;;;5045306;28;20349;-65
2023/07/09 00:05:09;;;;;;;;;;;;;;;;;;5043963;28;19924;-65
2023/07/09 00:07:35;;;;;;;;;;;;;;;;;;5044819;28;20016;-65
2023/07/09 00:10:01;;;;;;;;;;;;;;;;;;5044188;28;19932;-65
2023/07/09 00:12:27;;;;;;;;;;;;;;;;;;5044769;28;19921;-65
2023/07/09 00:14:54;;;;;;;;;;;;;;;;;;5037172;28;19959;-65
2023/07/09 00:17:20;;;;;;;;;;;;;;;;;;5034469;28;19924;-65
2023/07/09 00:19:46;;;;;;;;;;;;;;;;;;5043124;28;20634;-64
2023/07/09 00:22:12;;;;;;;;;;;;;;;;;;5032503;28;20016;-64
2023/07/09 00:24:38;;;;;;;;;;;;;;;;;;5043553;28;19920;-65
2023/07/09 00:27:04;;;;;;;;;;;;;;;;;;5045685;28;19950;-64
2023/07/09 00:29:30;;;;;;;;;;;;;;;;;;5045873;28;19925;-65
2023/07/09 00:31:56;;;;;;;;;;;;;;;;;;5045464;28;19921;-64
2023/07/09 00:34:24;;;;;;;;;;;;;;;;;;5043675;28;19932;-64
2023/07/09 00:36:51;;;;;;;;;;;;;;;;;;5046236;28;19932;-64
2023/07/09 00:39:17;;;;;;;;;;;;;;;;;;5045812;28;19925;-65
2023/07/09 00:41:44;;;;;;;;;;;;;;;;;;5044702;28;19959;-65
2023/07/09 00:44:10;;;;;;;;;;;;;;;;;;5043685;28;19931;-65
2023/07/09 00:46:36;;;;;;;;;;;;;;;;;;5045340;28;19925;-65
2023/07/09 00:49:04;;;;;;;;;;;;;;;;;;5044777;28;19958;-64
2023/07/09 00:51:30;;;;;;;;;;;;;;;;;;5044404;28;20374;-64
2023/07/09 00:53:58;;;;;;;;;;;;;;;;;;5044677;28;20517;-64
2023/07/09 00:56:24;;;;;;;;;;;;;;;;;;5045160;28;19972;-64
2023/07/09 00:58:50;;;;;;;;;;;;;;;;;;5045815;28;20003;-64
2023/07/09 01:01:16;;;;;;;;;;;;;;;;;;5044750;28;20019;-64
2023/07/09 01:03:42;;;;;;;;;;;;;;;;;;5044227;28;20452;-64
2023/07/09 01:06:08;;;;;;;;;;;;;;;;;;5045100;28;20398;-64
2023/07/09 01:08:33;;;;;;;;;;;;;;;;;;5044674;28;19972;-64
2023/07/09 01:10:59;;;;;;;;;;;;;;;;;;5044970;28;19925;-64
2023/07/09 01:13:26;;;;;;;;;;;;;;;;;;5044201;28;19924;-65
2023/07/09 01:15:52;;;;;;;;;;;;;;;;;;5045032;28;19976;-65
2023/07/09 01:18:17;;;;;;;;;;;;;;;;;;5043056;28;20140;-65
2023/07/09 01:20:43;;;;;;;;;;;;;;;;;;5043307;28;19924;-65
2023/07/09 01:23:09;;;;;;;;;;;;;;;;;;5032455;28;19929;-65
2023/07/09 01:25:35;;;;;;;;;;;;;;;;;;5044231;28;20015;-65
2023/07/09 01:28:01;;;;;;;;;;;;;;;;;;5044498;28;19971;-64
2023/07/09 01:30:28;;;;;;;;;;;;;;;;;;5044868;28;19925;-65
2023/07/09 01:32:54;;;;;;;;;;;;;;;;;;5044044;28;19924;-65
2023/07/09 01:35:21;;;;;;;;;;;;;;;;;;5044138;28;20745;-64
2023/07/09 01:37:47;;;;;;;;;;;;;;;;;;5044251;28;19924;-64
2023/07/09 01:40:13;;;;;;;;;;;;;;;;;;5043089;28;19931;-64
2023/07/09 01:42:39;;;;;;;;;;;;;;;;;;5044566;28;19924;-64
2023/07/09 01:45:05;;;;;;;;;;;;;;;;;;5044106;28;20507;-64
2023/07/09 01:47:30;;;;;;;;;;;;;;;;;;5043429;28;19931;-64
2023/07/09 01:49:57;;;;;;;;;;;;;;;;;;5043985;28;19964;-64
2023/07/09 01:52:23;;;;;;;;;;;;;;;;;;5044306;28;19925;-64
2023/07/09 01:54:49;;;;;;;;;;;;;;;;;;5044121;28;19978;-64
2023/07/09 01:57:15;;;;;;;;;;;;;;;;;;5042110;28;19982;-64
2023/07/09 01:59:41;;;;;;;;;;;;;;;;;;5044024;28;20263;-64
2023/07/09 02:02:07;;;;;;;;;;;;;;;;;;5044306;28;20011;-64
2023/07/09 02:04:33;;;;;;;;;;;;;;;;;;5043238;28;20500;-64
2023/07/09 02:06:59;;;;;;;;;;;;;;;;;;5043971;28;19924;-64
2023/07/09 02:09:25;;;;;;;;;;;;;;;;;;5043077;28;19929;-64
2023/07/09 02:11:51;;;;;;;;;;;;;;;;;;5044654;28;19932;-64
2023/07/09 02:14:17;;;;;;;;;;;;;;;;;;5044036;28;19925;-63
2023/07/09 02:16:43;;;;;;;;;;;;;;;;;;5043448;28;19987;-63
2023/07/09 02:19:09;;;;;;;;;;;;;;;;;;5042809;28;19929;-64
2023/07/09 02:21:35;;;;;;;;;;;;;;;;;;5035173;28;19932;-64
2023/07/09 02:24:02;;;;;;;;;;;;;;;;;;5037870;28;19929;-64
2023/07/09 02:26:28;;;;;;;;;;;;;;;;;;5043864;28;19956;-64
2023/07/09 02:28:53;;;;;;;;;;;;;;;;;;5043770;28;20468;-64
2023/07/09 02:31:19;;;;;;;;;;;;;;;;;;5042827;28;19924;-64
2023/07/09 02:33:45;;;;;;;;;;;;;;;;;;5042723;28;19924;-64
2023/07/09 02:36:11;;;;;;;;;;;;;;;;;;5038830;28;20477;-64
2023/07/09 02:38:37;;;;;;;;;;;;;;;;;;5043558;28;19925;-63
2023/07/09 02:41:03;;;;;;;;;;;;;;;;;;5042920;28;19924;-64
2023/07/09 02:43:29;;;;;;;;;;;;;;;;;;5042695;28;19929;-65
2023/07/09 02:45:55;;;;;;;;;;;;;;;;;;5043604;28;20345;-64
2023/07/09 02:48:21;;;;;;;;;;;;;;;;;;5042307;28;20495;-64
2023/07/09 02:50:47;;;;;;;;;;;;;;;;;;5043602;28;19925;-64
2023/07/09 02:53:12;;;;;;;;;;;;;;;;;;5043096;28;19951;-64
2023/07/09 02:55:38;;;;;;;;;;;;;;;;;;5040436;28;19925;-64
2023/07/09 02:58:04;;;;;;;;;;;;;;;;;;5042549;28;20208;-64
2023/07/09 03:00:30;;;;;;;;;;;;;;;;;;5041862;28;19929;-64
2023/07/09 03:02:56;;;;;;;;;;;;;;;;;;5040787;28;20015;-64
2023/07/09 03:05:22;;;;;;;;;;;;;;;;;;5041776;28;20028;-65
2023/07/09 03:07:48;;;;;;;;;;;;;;;;;;5042650;28;19931;-64
2023/07/09 03:10:14;;;;;;;;;;;;;;;;;;5043242;28;19925;-65
2023/07/09 03:12:40;;;;;;;;;;;;;;;;;;5042364;28;19925;-64
2023/07/09 03:15:06;;;;;;;;;;;;;;;;;;5042713;28;19970;-65
2023/07/09 03:17:32;;;;;;;;;;;;;;;;;;5041473;28;20379;-64
2023/07/09 03:19:58;;;;;;;;;;;;;;;;;;5042761;28;19925;-64
2023/07/09 03:22:24;;;;;;;;;;;;;;;;;;5042847;28;19932;-65
2023/07/09 03:24:49;;;;;;;;;;;;;;;;;;5043361;28;19925;-64
2023/07/09 03:27:15;;;;;;;;;;;;;;;;;;5042439;28;19925;-65
2023/07/09 03:29:41;;;;;;;;;;;;;;;;;;5041837;28;19928;-64
2023/07/09 03:32:07;;;;;;;;;;;;;;;;;;5042594;28;19993;-64
2023/07/09 03:34:33;;;;;;;;;;;;;;;;;;5042863;28;20359;-64
2023/07/09 03:36:59;;;;;;;;;;;;;;;;;;5042546;28;19929;-64
2023/07/09 03:39:25;;;;;;;;;;;;;;;;;;5042194;28;19982;-64
2023/07/09 03:41:51;;;;;;;;;;;;;;;;;;5042227;28;19924;-64
2023/07/09 03:44:17;;;;;;;;;;;;;;;;;;5043106;28;19924;-64
2023/07/09 03:46:43;;;;;;;;;;;;;;;;;;5041943;28;20553;-64
2023/07/09 03:49:09;;;;;;;;;;;;;;;;;;5042385;28;19932;-65
2023/07/09 03:51:35;;;;;;;;;;;;;;;;;;5041925;28;19928;-64
2023/07/09 03:54:00;;;;;;;;;;;;;;;;;;5042405;28;19932;-64
2023/07/09 03:56:26;;;;;;;;;;;;;;;;;;5042782;28;19924;-64
2023/07/09 03:58:52;;;;;;;;;;;;;;;;;;5057863;28;20025;-65
2023/07/09 04:01:18;;;;;;;;;;;;;;;;;;5041745;28;20016;-64
2023/07/09 04:03:44;;;;;;;;;;;;;;;;;;5041277;28;19998;-64
2023/07/09 04:06:10;;;;;;;;;;;;;;;;;;5042931;28;19929;-64
2023/07/09 04:08:36;;;;;;;;;;;;;;;;;;5040822;28;19925;-64
2023/07/09 04:11:02;;;;;;;;;;;;;;;;;;5042463;28;19994;-64
2023/07/09 04:13:28;;;;;;;;;;;;;;;;;;5057173;28;19964;-64
2023/07/09 04:15:54;;;;;;;;;;;;;;;;;;5042120;28;19998;-64
2023/07/09 04:18:20;;;;;;;;;;;;;;;;;;5042402;28;19924;-64
2023/07/09 04:20:46;;;;;;;;;;;;;;;;;;5046385;28;20015;-64
2023/07/09 04:23:13;;;;;;;;;;;;;;;;;;5045729;28;20335;-63
2023/07/09 04:25:39;;;;;;;;;;;;;;;;;;5045148;28;20436;-63
2023/07/09 04:28:05;;;;;;;;;;;;;;;;;;5045927;28;19925;-63
2023/07/09 04:30:31;;;;;;;;;;;;;;;;;;5044664;28;19929;-63
2023/07/09 04:32:57;;;;;;;;;;;;;;;;;;5045048;28;19924;-63
2023/07/09 04:35:23;;;;;;;;;;;;;;;;;;5044826;28;19924;-63
2023/07/09 04:37:49;;;;;;;;;;;;;;;;;;5045975;28;20367;-63
2023/07/09 04:40:15;;;;;;;;;;;;;;;;;;5045620;28;19927;-63
2023/07/09 04:42:41;;;;;;;;;;;;;;;;;;5046039;28;20284;-64
2023/07/09 04:45:07;;;;;;;;;;;;;;;;;;5045212;28;19931;-63
2023/07/09 04:47:33;;;;;;;;;;;;;;;;;;5043835;28;20351;-63
2023/07/09 04:49:59;;;;;;;;;;;;;;;;;;5045505;28;20011;-63
2023/07/09 04:52:25;;;;;;;;;;;;;;;;;;5045355;28;20012;-63
2023/07/09 04:54:51;;;;;;;;;;;;;;;;;;5044309;28;19925;-63
2023/07/09 04:57:17;;;;;;;;;;;;;;;;;;5045658;28;20024;-64
2023/07/09 04:59:43;;;;;;;;;;;;;;;;;;5044399;28;20505;-65
2023/07/09 05:02:09;;;;;;;;;;;;;;;;;;5044828;28;19931;-64
2023/07/09 05:04:35;;;;;;;;;;;;;;;;;;5045271;28;19921;-64
2023/07/09 05:07:01;;;;;;;;;;;;;;;;;;5044617;28;20365;-64
2023/07/09 05:09:27;;;;;;;;;;;;;;;;;;5045126;28;19925;-64
2023/07/09 05:11:53;;;;;;;;;;;;;;;;;;5045107;28;20494;-65
2023/07/09 05:14:19;;;;;;;;;;;;;;;;;;5044650;28;19933;-64
2023/07/09 05:16:45;;;;;;;;;;;;;;;;;;5044848;28;19925;-64
2023/07/09 05:19:11;;;;;;;;;;;;;;;;;;5044347;28;19929;-65
2023/07/09 05:21:37;;;;;;;;;;;;;;;;;;5044252;28;19925;-65
2023/07/09 05:24:03;;;;;;;;;;;;;;;;;;5044818;28;19939;-64
2023/07/09 05:26:29;;;;;;;;;;;;;;;;;;5044794;28;19932;-64
2023/07/09 05:28:56;;;;;;;;;;;;;;;;;;5044474;28;20290;-65
2023/07/09 05:31:22;;;;;;;;;;;;;;;;;;5042854;28;19979;-65
2023/07/09 05:33:48;;;;;;;;;;;;;;;;;;5044299;28;19929;-65
2023/07/09 05:36:15;;;;;;;;;;;;;;;;;;5044951;28;19924;-65
2023/07/09 05:38:41;;;;;;;;;;;;;;;;;;5044381;28;19983;-65
2023/07/09 05:41:07;;;;;;;;;;;;;;;;;;5044166;28;19924;-65
2023/07/09 05:43:33;;;;;;;;;;;;;;;;;;5043914;28;19931;-64
2023/07/09 05:45:59;;;;;;;;;;;;;;;;;;5045078;28;19929;-66
2023/07/09 05:48:25;;;;;;;;;;;;;;;;;;5043782;28;20306;-64
2023/07/09 05:50:51;;;;;;;;;;;;;;;;;;5044720;28;20394;-64
2023/07/09 05:53:17;;;;;;;;;;;;;;;;;;5044458;28;19925;-64
2023/07/09 05:55:43;;;;;;;;;;;;;;;;;;5043696;28;19932;-64
2023/07/09 05:58:09;;;;;;;;;;;;;;;;;;5044447;28;19970;-64
2023/07/09 06:00:37;;;;;;;;;;;;;;;;;;5044880;28;19937;-64
2023/07/09 06:03:03;;;;;;;;;;;;;;;;;;5035046;28;19936;-65
2023/07/09 06:05:29;;;;;;;;;;;;;;;;;;5037805;28;19920;-65
2023/07/09 06:07:55;;;;;;;;;;;;;;;;;;5044034;28;19976;-64
2023/07/09 06:10:21;;;;;;;;;;;;;;;;;;5044557;28;19971;-65
2023/07/09 06:12:48;;;;;;;;;;;;;;;;;;5043797;28;19924;-63
2023/07/09 06:15:14;;;;;;;;;;;;;;;;;;5043646;28;20469;-63
2023/07/09 06:17:40;;;;;;;;;;;;;;;;;;5042527;28;19925;-64
2023/07/09 06:20:06;;;;;;;;;;;;;;;;;;5042544;28;19932;-64
2023/07/09 06:22:32;;;;;;;;;;;;;;;;;;5043507;28;19937;-64
2023/07/09 06:24:58;;;;;;;;;;;;;;;;;;5043856;28;19932;-63
2023/07/09 06:27:24;;;;;;;;;;;;;;;;;;5042872;28;20409;-66
2023/07/09 06:29:50;;;;;;;;;;;;;;;;;;5043521;28;19960;-66
2023/07/09 06:32:16;;;;;;;;;;;;;;;;;;5042721;28;19965;-66
2023/07/09 06:34:42;;;;;;;;;;;;;;;;;;5043422;28;19929;-65
2023/07/09 06:37:07;;;;;;;;;;;;;;;;;;5043197;28;19948;-65
2023/07/09 06:39:33;;;;;;;;;;;;;;;;;;5042524;28;20008;-66
2023/07/09 06:41:59;;;;;;;;;;;;;;;;;;5043457;28;19995;-65
2023/07/09 06:44:25;;;;;;;;;;;;;;;;;;5043060;28;19925;-65
2023/07/09 06:46:51;;;;;;;;;;;;;;;;;;5043238;28;20372;-65
2023/07/09 06:49:17;;;;;;;;;;;;;;;;;;5043863;28;19925;-65
2023/07/09 06:51:43;;;;;;;;;;;;;;;;;;5042700;28;19933;-65
2023/07/09 06:54:09;;;;;;;;;;;;;;;;;;5042569;28;20007;-64
2023/07/09 06:56:35;;;;;;;;;;;;;;;;;;5042808;28;20394;-65
2023/07/09 06:59:01;;;;;;;;;;;;;;;;;;5043538;28;19925;-64
2023/07/09 07:01:27;;;;;;;;;;;;;;;;;;5042980;28;20007;-65
2023/07/09 07:03:53;;;;;;;;;;;;;;;;;;5027802;28;19985;-65
2023/07/09 07:06:18;;;;;;;;;;;;;;;;;;5043811;28;19933;-65
2023/07/09 07:08:44;;;;;;;;;;;;;;;;;;5043077;28;20447;-65
2023/07/09 07:11:10;;;;;;;;;;;;;;;;;;5042704;28;19929;-65
2023/07/09 07:13:36;;;;;;;;;;;;;;;;;;5042242;28;19924;-64
2023/07/09 07:16:02;;;;;;;;;;;;;;;;;;5042783;28;20421;-65
2023/07/09 07:18:28;;;;;;;;;;;;;;;;;;5041813;28;20309;-65
2023/07/09 07:20:54;;;;;;;;;;;;;;;;;;5042856;28;19920;-65
2023/07/09 07:23:20;;;;;;;;;;;;;;;;;;5043282;28;19925;-65
2023/07/09 07:25:46;;;;;;;;;;;;;;;;;;5042470;28;19920;-65
2023/07/09 07:28:12;;;;;;;;;;;;;;;;;;5042954;28;20504;-65
2023/07/09 07:30:38;;;;;;;;;;;;;;;;;;5042955;28;19932;-65
2023/07/09 07:33:04;;;;;;;;;;;;;;;;;;5041703;28;19936;-65
2023/07/09 07:35:30;;;;;;;;;;;;;;;;;;5041784;28;19986;-65
2023/07/09 07:37:56;;;;;;;;;;;;;;;;;;5043012;28;19925;-65
2023/07/09 07:40:22;;;;;;;;;;;;;;;;;;5057758;28;20509;-65
2023/07/09 07:42:48;;;;;;;;;;;;;;;;;;5042923;28;20015;-65
2023/07/09 07:45:14;;;;;;;;;;;;;;;;;;5042824;28;19924;-65
2023/07/09 07:47:40;;;;;;;;;;;;;;;;;;5041591;28;20022;-66
2023/07/09 07:50:06;;;;;;;;;;;;;;;;;;5042405;28;20114;-65
2023/07/09 07:52:32;;;;;;;;;;;;;;;;;;5042600;28;20453;-65
2023/07/09 07:54:58;;;;;;;;;;;;;;;;;;5045847;28;19939;-66
2023/07/09 07:57:24;;;;;;;;;;;;;;;;;;5046116;28;19925;-65
2023/07/09 07:59:50;;;;;;;;;;;;;;;;;;5046356;28;19925;-65
2023/07/09 08:02:16;;;;;;;;;;;;;;;;;;5043505;28;19947;-64
2023/07/09 08:04:42;;;;;;;;;;;;;;;;;;5034931;28;19929;-64
2023/07/09 08:07:08;;;;;;;;;;;;;;;;;;5046011;28;19932;-64
2023/07/09 08:09:34;;;;;;;;;;;;;;;;;;5045872;28;19943;-64
2023/07/09 08:12:01;;;;;;;;;;;;;;;;;;5046022;28;19963;-64
2023/07/09 08:14:26;;;;;;;;;;;;;;;;;;5035683;28;19960;-64
2023/07/09 08:16:52;;;;;;;;;;;;;;;;;;5036054;28;19976;-64
2023/07/09 08:19:18;;;;;;;;;;;;;;;;;;5046939;28;19925;-64
2023/07/09 08:21:44;;;;;;;;;;;;;;;;;;5043087;28;19937;-64
2023/07/09 08:24:10;;;;;;;;;;;;;;;;;;5033931;28;19929;-64
2023/07/09 08:26:37;;;;;;;;;;;;;;;;;;5046755;28;19925;-64
2023/07/09 08:29:04;;;;;;;;;;;;;;;;;;5046108;28;19924;-64
2023/07/09 08:31:30;;;;;;;;;;;;;;;;;;5044334;28;19941;-65
2023/07/09 08:33:56;;;;;;;;;;;;;;;;;;5045867;28;20327;-65
2023/07/09 08:36:23;;;;;;;;;;;;;;;;;;5045837;28;20024;-65
2023/07/09 08:38:49;;;;;;;;;;;;;;;;;;5040102;28;19979;-65
2023/07/09 08:41:14;;;;;;;;;;;;;;;;;;5045161;28;19924;-65
2023/07/09 08:43:40;;;;;;;;;;;;;;;;;;5041360;28;19987;-65
2023/07/09 08:46:06;;;;;;;;;;;;;;;;;;5036895;28;19925;-64
2023/07/09 08:48:32;;;;;;;;;;;;;;;;;;5040341;28;19929;-65
2023/07/09 08:50:58;;;;;;;;;;;;;;;;;;5034114;28;19925;-64
2023/07/09 08:53:24;;;;;;;;;;;;;;;;;;5040655;28;19925;-65
2023/07/09 08:55:50;;;;;;;;;;;;;;;;;;5044043;28;19931;-64
2023/07/09 08:58:16;;;;;;;;;;;;;;;;;;5039374;28;19925;-64
2023/07/09 09:00:42;;;;;;;;;;;;;;;;;;5036745;28;20015;-64
2023/07/09 09:03:08;;;;;;;;;;;;;;;;;;5033042;28;20023;-64
2023/07/09 09:05:34;;;;;;;;;;;;;;;;;;5038162;28;20340;-64
2023/07/09 09:08:00;;;;;;;;;;;;;;;;;;5043159;28;19929;-64
2023/07/09 09:10:26;;;;;;;;;;;;;;;;;;5038970;28;19928;-65
2023/07/09 09:12:52;;;;;;;;;;;;;;;;;;5044830;28;20114;-64
2023/07/09 09:15:18;;;;;;;;;;;;;;;;;;5060713;28;19925;-64
2023/07/09 09:17:43;;;;;;;;;;;;;;;;;;5042218;28;19925;-64
2023/07/09 09:20:09;;;;;;;;;;;;;;;;;;5044626;28;19931;-64
2023/07/09 09:22:35;;;;;;;;;;;;;;;;;;5044965;28;19932;-64
2023/07/09 09:25:01;;;;;;;;;;;;;;;;;;5045251;28;19924;-65
2023/07/09 09:27:27;;;;;;;;;;;;;;;;;;5044666;28;20387;-65
2023/07/09 09:29:53;;;;;;;;;;;;;;;;;;5044169;28;20268;-65
2023/07/09 09:32:19;;;;;;;;;;;;;;;;;;5044411;28;19935;-64
2023/07/09 09:34:45;;;;;;;;;;;;;;;;;;5044499;28;19932;-64
2023/07/09 09:37:14;;;;;;;;;;;;;;;;;;5044755;28;19982;-64
2023/07/09 09:39:40;;;;;;;;;;;;;;;;;;5043788;28;19936;-64
2023/07/09 09:42:06;;;;;;;;;;;;;;;;;;5044626;28;19925;-65
2023/07/09 09:44:32;;;;;;;;;;;;;;;;;;5044610;28;19928;-65
2023/07/09 09:46:58;;;;;;;;;;;;;;;;;;5043790;28;19932;-65
2023/07/09 09:49:24;;;;;;;;;;;;;;;;;;5043975;28;19925;-64
2023/07/09 09:51:50;;;;;;;;;;;;;;;;;;5044344;28;20059;-64
2023/07/09 09:54:16;;;;;;;;;;;;;;;;;;5044309;28;20337;-63
2023/07/09 09:56:42;;;;;;;;;;;;;;;;;;5044471;28;19929;-64
2023/07/09 09:59:08;;;;;;;;;;;;;;;;;;5044481;28;19925;-64
2023/07/09 10:01:37;;;;;;;;;;;;;;;;;;5042413;28;19932;-64
2023/07/09 10:04:03;;;;;;;;;;;;;;;;;;5029960;28;19947;-64
2023/07/09 10:06:29;;;;;;;;;;;;;;;;;;5044006;28;19955;-65
2023/07/09 10:08:56;;;;;;;;;;;;;;;;;;5044327;28;19925;-65
2023/07/09 10:11:22;;;;;;;;;;;;;;;;;;5043983;28;19951;-66
2023/07/09 10:13:48;;;;;;;;;;;;;;;;;;5035860;28;19925;-64
2023/07/09 10:16:14;;;;;;;;;;;;;;;;;;5026609;28;20020;-65
2023/07/09 10:18:40;;;;;;;;;;;;;;;;;;5043250;28;20062;-65
2023/07/09 10:21:06;;;;;;;;;;;;;;;;;;5043781;28;19925;-65
2023/07/09 10:23:31;;;;;;;;;;;;;;;;;;5037494;28;19944;-66
2023/07/09 10:25:57;;;;;;;;;;;;;;;;;;5041327;28;19925;-66
2023/07/09 10:28:23;;;;;;;;;;;;;;;;;;5043289;28;19924;-66
2023/07/09 10:30:49;;;;;;;;;;;;;;;;;;5043227;28;19983;-66
2023/07/09 10:33:15;;;;;;;;;;;;;;;;;;5041785;28;19990;-66
2023/07/09 10:35:41;;;;;;;;;;;;;;;;;;5041107;28;20047;-66
2023/07/09 10:38:07;;;;;;;;;;;;;;;;;;5041974;28;19925;-65
2023/07/09 10:40:33;;;;;;;;;;;;;;;;;;5057398;28;19924;-65
2023/07/09 10:42:59;;;;;;;;;;;;;;;;;;5042017;28;19932;-65
2023/07/09 10:45:25;;;;;;;;;;;;;;;;;;5041550;28;19932;-65
2023/07/09 10:47:51;;;;;;;;;;;;;;;;;;5041475;28;19947;-60
2023/07/09 10:50:17;;;;;;;;;;;;;;;;;;5042456;28;20418;-60
2023/07/09 10:52:42;;;;;;;;;;;;;;;;;;5041791;28;19924;-61
2023/07/09 10:55:08;;;;;;;;;;;;;;;;;;5042020;28;20094;-60
2023/07/09 10:57:34;;;;;;;;;;;;;;;;;;5041390;28;20015;-60
2023/07/09 11:00:00;;;;;;;;;;;;;;;;;;5042544;28;20374;-60
2023/07/09 11:02:26;;;;;;;;;;;;;;;;;;5038750;28;19932;-60
2023/07/09 11:04:52;;;;;;;;;;;;;;;;;;5033429;28;19924;-61
2023/07/09 11:07:18;;;;;;;;;;;;;;;;;;5042772;28;20401;-60
2023/07/09 11:09:45;;;;;;;;;;;;;;;;;;5027733;28;19936;-61
2023/07/09 11:12:11;;;;;;;;;;;;;;;;;;5037177;28;20352;-60
2023/07/09 11:14:38;;;;;;;;;;;;;;;;;;5042625;28;19952;-60
2023/07/09 11:17:04;;;;;;;;;;;;;;;;;;5041981;28;20553;-60
2023/07/09 11:19:30;;;;;;;;;;;;;;;;;;5042393;28;19932;-59
2023/07/09 11:21:55;;;;;;;;;;;;;;;;;;5043182;28;20434;-59
2023/07/09 11:24:21;;;;;;;;;;;;;;;;;;5042915;28;19929;-63
2023/07/09 11:26:47;;;;;;;;;;;;;;;;;;5043119;28;19932;-63
2023/07/09 11:29:13;;;;;;;;;;;;;;;;;;5044831;28;19975;-63
2023/07/09 11:31:39;;;;;;;;;;;;;;;;;;5045904;28;19927;-63
2023/07/09 11:34:05;;;;;;;;;;;;;;;;;;5046678;28;20109;-63
2023/07/09 11:36:31;;;;;;;;;;;;;;;;;;5047051;28;19931;-62
2023/07/09 11:38:57;;;;;;;;;;;;;;;;;;5047052;28;19932;-62
2023/07/09 11:41:24;;;;;;;;;;;;;;;;;;5046548;28;19929;-63
2023/07/09 11:43:50;;;;;;;;;;;;;;;;;;5046792;28;19944;-62
2023/07/09 11:46:16;;;;;;;;;;;;;;;;;;5039122;28;19932;-62
2023/07/09 11:48:41;;;;;;;;;;;;;;;;;;5039392;28;20317;-62
2023/07/09 11:51:08;;;;;;;;;;;;;;;;;;5042135;28;19971;-62
2023/07/09 11:53:33;;;;;;;;;;;;;;;;;;5036066;28;19935;-62
2023/07/09 11:55:59;;;;;;;;;;;;;;;;;;5046687;28;19925;-62
2023/07/09 11:58:25;;;;;;;;;;;;;;;;;;5045210;28;19925;-63
2023/07/09 12:00:51;;;;;;;;;;;;;;;;;;5046174;28;20358;-62
2023/07/09 12:03:17;;;;;;;;;;;;;;;;;;5038530;28;19926;-62
2023/07/09 12:05:43;;;;;;;;;;;;;;;;;;5038660;28;19971;-62
2023/07/09 12:08:09;;;;;;;;;;;;;;;;;;5034816;28;19977;-62
2023/07/09 12:10:35;;;;;;;;;;;;;;;;;;5034534;28;19925;-62
2023/07/09 12:13:03;;;;;;;;;;;;;;;;;;5042820;28;20047;-61
2023/07/09 12:15:31;;;;;;;;;;;;;;;;;;5031872;28;19954;-62
2023/07/09 12:17:58;;;;;;;;;;;;;;;;;;5044805;28;19932;-61
2023/07/09 12:20:23;;;;;;;;;;;;;;;;;;5032990;28;20322;-62
2023/07/09 12:22:49;;;;;;;;;;;;;;;;;;5046535;28;19925;-61
2023/07/09 12:25:15;;;;;;;;;;;;;;;;;;5046040;28;19925;-63
2023/07/09 12:27:41;;;;;;;;;;;;;;;;;;5045082;28;20382;-62
2023/07/09 12:30:07;;;;;;;;;;;;;;;;;;5046163;28;19931;-62
2023/07/09 12:32:33;;;;;;;;;;;;;;;;;;5045189;28;19936;-62
2023/07/09 12:34:59;;;;;;;;;;;;;;;;;;5045866;28;19925;-62
2023/07/09 12:37:25;;;;;;;;;;;;;;;;;;5042431;28;19929;-62
2023/07/09 12:39:54;;;;;;;;;;;;;;;;;;5034784;28;20007;-62
2023/07/09 12:42:19;;;;;;;;;;;;;;;;;;5044063;28;19929;-61
2023/07/09 12:44:49;;;;;;;;;;;;;;;;;;5036583;28;19935;-62
2023/07/09 12:47:15;;;;;;;;;;;;;;;;;;5039147;28;19929;-62
2023/07/09 12:49:41;;;;;;;;;;;;;;;;;;5037909;28;19979;-61
2023/07/09 12:52:07;;;;;;;;;;;;;;;;;;5036540;28;19925;-62
2023/07/09 12:54:33;;;;;;;;;;;;;;;;;;5045326;28;20091;-62
2023/07/09 12:56:59;;;;;;;;;;;;;;;;;;5045534;28;19931;-62
2023/07/09 12:59:25;;;;;;;;;;;;;;;;;;5043414;28;19924;-62
2023/07/09 13:01:51;;;;;;;;;;;;;;;;;;5035159;28;20631;-62
2023/07/09 13:04:17;;;;;;;;;;;;;;;;;;5031347;28;20697;-62
2023/07/09 13:06:43;;;;;;;;;;;;;;;;;;5031113;28;19940;-62
2023/07/09 13:09:09;;;;;;;;;;;;;;;;;;5036533;28;19925;-62
2023/07/09 13:11:36;;;;;;;;;;;;;;;;;;5044698;28;19931;-62
2023/07/09 13:14:02;;;;;;;;;;;;;;;;;;5044816;28;19982;-61
2023/07/09 13:16:28;;;;;;;;;;;;;;;;;;5044531;28;19929;-62
2023/07/09 13:18:54;;;;;;;;;;;;;;;;;;5045075;28;19929;-62
2023/07/09 13:21:20;;;;;;;;;;;;;;;;;;5036250;28;19931;-62
2023/07/09 13:23:46;;;;;;;;;;;;;;;;;;5030263;28;19983;-62
2023/07/09 13:26:12;;;;;;;;;;;;;;;;;;5044630;28;19929;-62
2023/07/09 13:28:39;;;;;;;;;;;;;;;;;;5045461;28;19925;-62
2023/07/09 13:31:05;;;;;;;;;;;;;;;;;;5044119;28;20011;-62
2023/07/09 13:33:31;;;;;;;;;;;;;;;;;;5043788;28;20456;-62
2023/07/09 13:35:57;;;;;;;;;;;;;;;;;;5044464;28;19935;-63
2023/07/09 13:38:23;;;;;;;;;;;;;;;;;;5044839;28;19924;-62
2023/07/09 13:40:49;;;;;;;;;;;;;;;;;;5044608;28;20526;-61
2023/07/09 13:43:15;;;;;;;;;;;;;;;;;;5037337;28;19925;-62
2023/07/09 13:45:41;;;;;;;;;;;;;;;;;;5061817;28;19925;-62
2023/07/09 13:48:07;;;;;;;;;;;;;;;;;;5037714;28;19925;-62
2023/07/09 13:50:33;;;;;;;;;;;;;;;;;;5034600;28;19986;-62
2023/07/09 13:52:59;;;;;;;;;;;;;;;;;;5030959;28;19997;-62
2023/07/09 13:55:25;;;;;;;;;;;;;;;;;;5030255;28;19924;-62
2023/07/09 13:57:52;;;;;;;;;;;;;;;;;;5044651;28;20317;-62
2023/07/09 14:00:18;;;;;;;;;;;;;;;;;;5044613;28;19931;-62
2023/07/09 14:02:44;;;;;;;;;;;;;;;;;;5037625;28;19925;-64
2023/07/09 14:05:10;;;;;;;;;;;;;;;;;;5036224;28;19936;-63
2023/07/09 14:07:36;;;;;;;;;;;;;;;;;;5041821;28;19939;-62
2023/07/09 14:10:02;;;;;;;;;;;;;;;;;;5037152;28;19947;-62
2023/07/09 14:12:28;;;;;;;;;;;;;;;;;;5042068;28;19932;-62
2023/07/09 14:14:54;;;;;;;;;;;;;;;;;;5041526;28;19936;-63
2023/07/09 14:17:22;;;;;;;;;;;;;;;;;;5041974;28;20423;-63
2023/07/09 14:19:48;;;;;;;;;;;;;;;;;;5042395;28;19925;-63
2023/07/09 14:22:14;;;;;;;;;;;;;;;;;;5034311;28;19940;-62
2023/07/09 14:24:40;;;;;;;;;;;;;;;;;;5035912;28;19929;-62
2023/07/09 14:27:06;;;;;;;;;;;;;;;;;;5035188;28;19941;-61
2023/07/09 14:29:32;;;;;;;;;;;;;;;;;;5039225;28;20358;-61
2023/07/09 14:31:58;;;;;;;;;;;;;;;;;;5027475;28;20000;-61
2023/07/09 14:34:24;;;;;;;;;;;;;;;;;;5026831;28;20071;-62
2023/07/09 14:36:50;;;;;;;;;;;;;;;;;;5027645;28;20447;-62
2023/07/09 14:39:16;;;;;;;;;;;;;;;;;;5026941;28;19925;-62
2023/07/09 14:41:43;;;;;;;;;;;;;;;;;;5038316;28;20130;-62
2023/07/09 14:44:09;;;;;;;;;;;;;;;;;;5041232;28;19948;-62
2023/07/09 14:46:35;;;;;;;;;;;;;;;;;;5029203;28;19928;-62
2023/07/09 14:49:00;;;;;;;;;;;;;;;;;;5037897;28;19989;-62
2023/07/09 14:51:26;;;;;;;;;;;;;;;;;;5032762;28;19932;-62
2023/07/09 14:53:52;;;;;;;;;;;;;;;;;;5033291;28;19936;-61
2023/07/09 14:56:18;;;;;;;;;;;;;;;;;;5032030;28;19929;-62
2023/07/09 14:58:44;;;;;;;;;;;;;;;;;;5047392;28;20408;-62
2023/07/09 15:01:10;;;;;;;;;;;;;;;;;;5040852;28;20413;-62
2023/07/09 15:03:36;;;;;;;;;;;;;;;;;;5025733;28;20012;-62
2023/07/09 15:06:02;;;;;;;;;;;;;;;;;;5038549;28;20785;-60
2023/07/09 15:08:28;;;;;;;;;;;;;;;;;;5039203;28;20023;-61
2023/07/09 15:10:54;;;;;;;;;;;;;;;;;;5034169;28;20776;-61
2023/07/09 15:13:20;;;;;;;;;;;;;;;;;;5039479;28;19928;-61
2023/07/09 15:15:46;;;;;;;;;;;;;;;;;;5036290;28;20003;-59
2023/07/09 15:18:12;;;;;;;;;;;;;;;;;;5034153;28;20020;-60
2023/07/09 15:20:38;;;;;;;;;;;;;;;;;;5065568;28;19924;-60
2023/07/09 15:23:04;;;;;;;;;;;;;;;;;;5031293;28;20349;-61
2023/07/09 15:25:30;;;;;;;;;;;;;;;;;;5038329;28;19936;-62
2023/07/09 15:27:56;;;;;;;;;;;;;;;;;;5041067;28;20386;-62
2023/07/09 15:30:22;;;;;;;;;;;;;;;;;;5023807;28;19968;-63
2023/07/09 15:32:48;;;;;;;;;;;;;;;;;;5038673;28;19963;-63
2023/07/09 15:35:15;;;;;;;;;;;;;;;;;;5040813;28;19929;-64
2023/07/09 15:37:40;;;;;;;;;;;;;;;;;;5039712;28;19929;-63
2023/07/09 15:40:06;;;;;;;;;;;;;;;;;;5034246;28;20507;-63
2023/07/09 15:42:32;;;;;;;;;;;;;;;;;;5035859;28;19929;-63
2023/07/09 15:44:58;;;;;;;;;;;;;;;;;;5031422;28;20012;-63
2023/07/09 15:47:24;;;;;;;;;;;;;;;;;;5027779;28;19940;-63
2023/07/09 15:49:50;;;;;;;;;;;;;;;;;;5038196;28;19928;-64
2023/07/09 15:52:16;;;;;;;;;;;;;;;;;;5040407;28;19968;-64
2023/07/09 15:54:42;;;;;;;;;;;;;;;;;;5040736;28;20382;-63
2023/07/09 15:57:08;;;;;;;;;;;;;;;;;;5037603;28;20430;-64
2023/07/09 15:59:34;;;;;;;;;;;;;;;;;;5037713;28;20021;-65
2023/07/09 16:02:00;;;;;;;;;;;;;;;;;;5038860;28;19929;-64
2023/07/09 16:04:26;;;;;;;;;;;;;;;;;;5031951;28;19988;-64
2023/07/09 16:06:52;;;;;;;;;;;;;;;;;;5040979;28;20319;-65
2023/07/09 16:09:17;;;;;;;;;;;;;;;;;;5040260;28;19924;-65
2023/07/09 16:11:43;;;;;;;;;;;;;;;;;;5042001;28;19925;-64
2023/07/09 16:14:09;;;;;;;;;;;;;;;;;;5034143;28;19925;-64
2023/07/09 16:16:35;;;;;;;;;;;;;;;;;;5046251;28;19924;-64
2023/07/09 16:19:01;;;;;;;;;;;;;;;;;;5043801;28;20466;-63
2023/07/09 16:21:27;;;;;;;;;;;;;;;;;;5044416;28;19968;-64
2023/07/09 16:23:53;;;;;;;;;;;;;;;;;;5041999;28;20042;-64
2023/07/09 16:26:19;;;;;;;;;;;;;;;;;;5046634;28;19936;-64
2023/07/09 16:28:45;;;;;;;;;;;;;;;;;;5039969;28;19929;-64
2023/07/09 16:31:11;;;;;;;;;;;;;;;;;;5038170;28;20012;-63
2023/07/09 16:33:37;;;;;;;;;;;;;;;;;;5034098;28;19924;-63
2023/07/09 16:36:03;;;;;;;;;;;;;;;;;;5031355;28;20027;-64